• Join FlightAware (Why Join?)
  • Login
  • US Flag 
11:16AM EST


 

Airport Tracker/Info


-or-


 

Live Flight TrackerFlight Track Log ✈ N683FE ✈ 07-Apr-2013 ✈ KGTF - KMEM

Flight Track Log - Related Links

Times and Time Zones

All times are in EDT time to prevent confusion due to time zone crossing. See the N683FE flight status page for this flight to view local times or setup timezone preferences in your user account.

Time Position Orientation Groundspeed Altitude Reporting Facility
EDT Latitude Longitude Course Direction KTS MPH feet Rate Location/Type
09:06AM 47.4672 -111.3861 134° Southeast 136 157 5,400  Level Salt Lake Center
09:07AM 47.4192 -111.4222 207° Southwest 297 342 7,300 2,820 Climbing Salt Lake Center
09:08AM 47.3578 -111.3528 143° Southeast 294 338 11,100 3,240 Climbing Salt Lake Center
09:09AM 47.2975 -111.2308 126° Southeast 343 395 13,900 3,360 Climbing Salt Lake Center
09:10AM 47.2272 -111.1014 129° Southeast 389 448 17,900 3,660 Climbing Salt Lake Center
09:11AM 47.1519 -110.9653 129° Southeast 419 482 21,400 3,240 Climbing Salt Lake Center
09:12AM 47.1681 -110.5825 134° Southeast  Level Estimated
09:13AM 47.0742 -110.8206 128° Southeast 446 513 24,500  Level Salt Lake Center
09:14AM 46.9928 -110.6714 129° Southeast 466 536 27,000 2,640 Climbing Salt Lake Center
09:15AM 46.9081 -110.5214 130° Southeast 477 549 29,900 2,820 Climbing Salt Lake Center
09:16AM 46.8256 -110.3706 129° Southeast 477 549 32,800 2,340 Climbing Salt Lake Center
09:17AM 46.7411 -110.2239 130° Southeast 475 547 34,700 1,680 Climbing Salt Lake Center
09:18AM 46.6467 -110.0597 130° Southeast 470 541 36,300 1,080 Climbing Salt Lake Center
09:19AM 46.5706 -109.9089 126° Southeast 480 552 37,000 300 Climbing Salt Lake Center
09:20AM 46.5058 -109.7425 119° Southeast 494 568 37,000  Level Salt Lake Center
09:21AM 46.4303 -109.5467 119° Southeast 500 575 37,000  Level Salt Lake Center
09:22AM 46.3642 -109.3817 120° Southeast 497 572 37,000  Level Salt Lake Center
09:23AM 46.2989 -109.2161 120° Southeast 496 571 37,000  Level Salt Lake Center
09:24AM 46.2206 -109.0250 121° Southeast 495 570 37,000  Level Salt Lake Center
09:25AM 46.1531 -108.8589 120° Southeast 500 575 37,000  Level Salt Lake Center
09:26AM 46.0858 -108.6953 121° Southeast 497 572 37,000  Level Salt Lake Center
09:27AM 46.0067 -108.5047 121° Southeast 496 571 37,000  Level Salt Lake Center
09:28AM 45.9394 -108.3411 121° Southeast 496 571 37,000  Level Salt Lake Center
09:29AM 45.8717 -108.1772 121° Southeast 496 571 37,000  Level Salt Lake Center
09:30AM 45.7917 -107.9867 121° Southeast 499 574 37,000  Level Salt Lake Center
09:31AM 45.7244 -107.8264 121° Southeast 491 565 37,000  Level Salt Lake Center
09:32AM 45.6583 -107.6694 121° Southeast 484 557 37,000  Level Salt Lake Center
09:33AM 45.5908 -107.5133 122° Southeast 483 556 37,000  Level Salt Lake Center
09:34AM 45.5111 -107.3269 121° Southeast 491 565 37,000  Level Salt Lake Center
09:35AM 45.4417 -107.1653 121° Southeast 498 573 37,000  Level Salt Lake Center
09:36AM 45.3664 -106.9978 123° Southeast 524 603 37,000  Level Salt Lake Center
09:37AM 45.2850 -106.8142 122° Southeast 506 582 37,000  Level Salt Lake Center
09:38AM 45.2172 -106.6583 122° Southeast 493 567 37,000  Level Salt Lake Center
09:39AM 45.1547 -106.5056 120° Southeast 473 544 37,000  Level Salt Lake Center
09:40AM 45.0717 -106.3214 123° Southeast 493 567 37,000  Level Salt Lake Center
09:41AM 45.0017 -106.1647 122° Southeast 493 567 37,000  Level Salt Lake Center
09:42AM 44.9333 -106.0111 122° Southeast 483 556 37,000  Level Salt Lake Center
09:43AM 44.8539 -105.8331 122° Southeast 481 554 37,000  Level Salt Lake Center
09:43AM 44.8175 -105.7567 124° Southeast 485 558 37,000  Level Denver Center
09:44AM 44.7353 -105.5750 122° Southeast 491 565 37,000  Level Denver Center
09:45AM 44.6636 -105.4211 123° Southeast 492 566 37,000  Level Denver Center
09:46AM 44.5967 -105.2750 123° Southeast 483 556 37,000  Level Denver Center
09:47AM 44.5142 -105.0950 123° Southeast 488 562 37,000  Level Denver Center
09:49AM 44.4436 -104.9442 123° Southeast 485 558 37,000  Level Denver Center
09:50AM 44.3594 -104.7669 124° Southeast 488 562 37,000  Level Denver Center
09:51AM 44.2889 -104.6161 123° Southeast 485 558 37,000  Level Denver Center
09:52AM 44.2172 -104.4656 124° Southeast 486 559 37,000  Level Denver Center
09:53AM 44.1336 -104.2894 123° Southeast 487 560 37,000  Level Denver Center
09:54AM 44.0611 -104.1386 124° Southeast 488 562 37,000  Level Denver Center
09:55AM 43.9878 -103.9897 124° Southeast 489 563 37,000  Level Denver Center
09:56AM 43.9039 -103.8183 124° Southeast 484 557 37,000  Level Denver Center
09:57AM 43.8319 -103.6683 124° Southeast 486 559 37,000  Level Denver Center
09:58AM 43.7592 -103.5206 124° Southeast 485 558 37,000  Level Denver Center
09:59AM 43.6767 -103.3525 124° Southeast 477 549 37,000  Level Denver Center
10:00AM 43.6025 -103.2053 125° Southeast 481 554 37,000  Level Denver Center
10:01AM 43.5286 -103.0553 124° Southeast 488 562 37,000  Level Denver Center
10:02AM 43.4433 -102.8864 125° Southeast 483 556 37,000  Level Denver Center
10:03AM 43.3706 -102.7403 124° Southeast 483 556 37,000  Level Denver Center
10:04AM 43.2953 -102.5942 125° Southeast 489 563 37,000  Level Denver Center
10:05AM 43.2092 -102.4231 125° Southeast 488 562 37,000  Level Denver Center
10:06AM 43.1347 -102.2783 125° Southeast 486 559 37,000  Level Denver Center
10:07AM 43.0475 -102.1083 125° Southeast 489 563 37,000  Level Denver Center
10:08AM 42.9717 -101.9628 125° Southeast 491 565 37,000  Level Denver Center
10:09AM 42.8961 -101.8167 125° Southeast 493 567 37,000  Level Denver Center
10:10AM 42.8108 -101.6536 125° Southeast 488 562 37,000  Level Denver Center
10:11AM 42.7350 -101.5106 126° Southeast 487 560 37,000  Level Denver Center
10:12AM 42.6467 -101.3408 125° Southeast 490 564 37,000  Level Denver Center
10:13AM 42.5714 -101.1981 126° Southeast 487 560 37,000  Level Denver Center
10:14AM 42.4819 -101.0325 126° Southeast 487 560 37,000  Level Denver Center
10:15AM 42.4053 -100.8903 126° Southeast 488 562 37,000  Level Denver Center
10:16AM 42.3283 -100.7461 126° Southeast 492 566 37,000  Level Denver Center
10:17AM 42.2372 -100.5786 126° Southeast 495 570 37,000  Level Denver Center
10:18AM 42.1592 -100.4339 126° Southeast 496 571 37,000  Level Denver Center
10:19AM 42.0739 -100.2778 126° Southeast 497 572 37,000  Level Minneapolis Center
10:20AM 41.9922 -100.1286 126° Southeast 497 572 37,000  Level Minneapolis Center
10:21AM 41.8836 -99.9344 127° Southeast 494 568 37,000  Level Denver Center
10:22AM 41.8047 -99.7917 127° Southeast 494 568 37,000  Level Denver Center
10:23AM 41.7272 -99.6542 127° Southeast 496 571 37,000  Level Denver Center
10:24AM 41.6458 -99.5069 126° Southeast 493 567 37,000  Level Denver Center
10:25AM 41.5464 -99.3311 127° Southeast 493 567 37,000  Level Denver Center
10:27AM 41.4633 -99.1847 127° Southeast 494 568 37,000  Level Denver Center
10:28AM 41.3792 -99.0378 127° Southeast 495 570 37,000  Level Denver Center
10:28AM 41.3100 -98.9186 128° Southeast 495 570 37,000  Level Minneapolis Center
10:29AM 41.2283 -98.7739 127° Southeast 494 568 37,000  Level Minneapolis Center
10:30AM 41.1450 -98.6311 128° Southeast 491 565 37,000  Level Minneapolis Center
10:31AM 41.0628 -98.4897 128° Southeast 487 560 37,000  Level Minneapolis Center
10:33AM 40.9733 -98.3367 128° Southeast 490 564 37,000  Level Minneapolis Center
10:34AM 40.8900 -98.1939 128° Southeast 489 563 37,000  Level Minneapolis Center
10:35AM 40.8064 -98.0519 128° Southeast 489 563 37,000  Level Minneapolis Center
10:40AM 40.3700 -97.3210 128° Southeast 37,000  Level FlightAware
10:41AM 40.3230 -97.2430 128° Southeast 37,000  Level FlightAware
10:41AM 40.2600 -97.1380 128° Southeast 37,000  Level FlightAware
10:42AM 40.2040 -97.0450 128° Southeast 37,000  Level FlightAware
10:43AM 40.1570 -96.9690 129° Southeast 37,000  Level FlightAware
10:43AM 40.1140 -96.8980 128° Southeast 37,000  Level FlightAware
10:44AM 40.0470 -96.7890 129° Southeast 37,000  Level FlightAware
10:45AM 39.9800 -96.6800 129° Southeast 37,000  Level FlightAware
10:45AM 39.9180 -96.5790 129° Southeast 37,000  Level FlightAware
10:47AM 39.8180 -96.4180 129° Southeast 37,000  Level FlightAware
10:47AM 39.7540 -96.3160 129° Southeast 37,000  Level FlightAware
10:48AM 39.6880 -96.2100 129° Southeast 37,000  Level FlightAware
10:49AM 39.6270 -96.1130 129° Southeast 37,000  Level FlightAware
10:50AM 39.5760 -96.0310 129° Southeast 37,000  Level FlightAware
10:50AM 39.5350 -95.9670 130° Southeast 37,000  Level FlightAware
10:51AM 39.4700 -95.8630 129° Southeast 37,000  Level FlightAware
10:51AM 39.4170 -95.7800 130° Southeast 37,000  Level FlightAware
10:52AM 39.3670 -95.7010 129° Southeast 37,000  Level FlightAware
10:53AM 39.3350 -95.6520 130° Southeast 37,000  Level FlightAware
10:53AM 39.2870 -95.5770 130° Southeast 37,000  Level FlightAware
10:54AM 39.2120 -95.4590 129° Southeast 37,000  Level FlightAware
10:55AM 39.1520 -95.3660 130° Southeast 37,000  Level FlightAware
10:56AM 39.0920 -95.2730 130° Southeast 37,000  Level FlightAware
10:56AM 39.0340 -95.1820 129° Southeast 37,000  Level FlightAware
10:57AM 38.9730 -95.0880 130° Southeast 37,000  Level FlightAware
10:58AM 38.8960 -94.9700 130° Southeast 37,000  Level FlightAware
10:58AM 38.8480 -94.8970 130° Southeast 37,000  Level FlightAware
10:59AM 38.8030 -94.8270 130° Southeast 37,000  Level FlightAware
11:00AM 38.6050 -94.5260 130° Southeast 37,000  Level FlightAware
11:00AM 38.5440 -94.4340 130° Southeast 37,000  Level FlightAware
11:01AM 38.4780 -94.3340 130° Southeast 37,000  Level FlightAware
11:02AM 38.4180 -94.2430 130° Southeast 37,000  Level FlightAware
11:03AM 38.3560 -94.1510 131° Southeast 37,000  Level FlightAware
11:03AM 38.2900 -94.0530 131° Southeast 37,000  Level FlightAware
11:04AM 38.2210 -93.9500 130° Southeast 37,000  Level FlightAware
11:05AM 38.1710 -93.8750 130° Southeast 37,000  Level FlightAware
11:06AM 38.0560 -93.7050 131° Southeast 37,000  Level FlightAware
11:07AM 37.9990 -93.6210 131° Southeast 37,000  Level FlightAware
11:09AM 37.7750 -93.2930 131° Southeast 37,000  Level FlightAware
11:10AM 37.7070 -93.1950 131° Southeast 37,000  Level FlightAware
11:11AM 37.6139 -93.0617 131° Southeast 499 574 37,000  Level Kansas City Center
11:12AM 37.5233 -92.9292 131° Southeast 499 574 37,000 -120 Level Kansas City Center
11:13AM 37.4331 -92.7997 131° Southeast 496 571 36,800 -540 Descending Kansas City Center
11:14AM 37.3419 -92.6706 132° Southeast 495 570 35,900 -1,020 Descending Kansas City Center
11:15AM 37.2361 -92.5181 131° Southeast 486 559 34,700 -1,140 Descending Kansas City Center
11:16AM 37.1478 -92.3944 132° Southeast 481 554 33,600 -840 Descending Kansas City Center
11:17AM 37.0594 -92.2700 132° Southeast 479 551 33,000 -300 Descending Kansas City Center
11:18AM 36.9722 -92.1469 132° Southeast 475 547 33,000  Level Kansas City Center
11:19AM 36.8856 -92.0236 131° Southeast 472 543 33,000  Level Kansas City Center
11:19AM 36.8486 -91.9772 135° Southeast 470 541 33,000  Level Memphis Center
11:20AM 36.7625 -91.8514 130° Southeast 470 541 33,000 -420 Level Memphis Center
11:21AM 36.6703 -91.7253 132° Southeast 481 554 32,200 -960 Descending Memphis Center
11:22AM 36.5756 -91.5972 133° Southeast 494 568 31,100 -1,080 Descending Memphis Center
11:23AM 36.4789 -91.4667 133° Southeast 499 574 30,100 -1,020 Descending Memphis Center
11:24AM 36.3861 -91.3367 132° Southeast 504 580 29,100 -1,320 Descending Memphis Center
11:25AM 36.2872 -91.2067 133° Southeast 504 580 27,500 -2,460 Descending Memphis Center
11:26AM 36.1942 -91.0822 133° Southeast 498 573 24,200 -2,280 Descending Memphis Center
11:27AM 36.0986 -90.9914 142° Southeast 475 547 23,000 -1,620 Descending Memphis Center
11:28AM 35.9947 -90.9342 156° South 430 495 21,000 -2,100 Descending Memphis Center
11:29AM 35.8864 -90.9003 166° South 405 466 18,900 -2,100 Descending Memphis Center
11:30AM 35.7844 -90.8714 167° South 398 458 16,900 -2,100 Descending Memphis Center
11:31AM 35.6781 -90.8425 168° South 386 444 14,800 -2,100 Descending Memphis Center
11:32AM 35.5822 -90.8192 169° South 362 417 12,800 -1,860 Descending Memphis Center
11:33AM 35.4906 -90.7931 167° South 347 399 11,100 -1,260 Descending Memphis Center
11:34AM 35.4325 -90.7114 131° Southeast 318 366 10,300 -600 Descending Memphis Center
11:35AM 35.4139 -90.6144 103° East 287 330 9,900 -840 Descending Memphis Center
11:36AM 35.4056 -90.5200 96° East 281 323 8,700 -1,260 Descending Memphis Center
11:37AM 35.3953 -90.4308 98° East 271 312 7,400 -1,260 Descending Memphis Center
11:38AM 35.3869 -90.3417 97° East 271 312 6,200 -1,320 Descending Memphis Center
11:39AM 35.3767 -90.2553 98° East 261 300 4,800 -1,140 Descending Memphis Center
11:40AM 35.3681 -90.1789 98° East 255 293 4,000 -420 Descending Memphis Center
11:41AM 35.3617 -90.0947 95° East 255 293 4,000 -180 Level Memphis Center
11:42AM 35.3333 -90.0167 114° Southeast 223 257 3,700 -540 Descending KMEM
11:43AM 35.3000 -89.9833 141° Southeast 211 243 3,000 -660 Descending KMEM
11:44AM 35.2333 -89.9833 180° South 181 208 2,400 -480 Descending KMEM
11:45AM 35.1833 -89.9833 180° South 160 184 2,000 -240 Descending KMEM
11:46AM 35.1500 -89.9833 180° South 172 198 2,000 -480 Level KMEM
11:47AM 35.1000 -89.9833 180° South 117 135 1,100 -720 Descending KMEM
11:48AM 35.0667 -89.9833 180° South 111 128 600 -540 Descending KMEM
11:50AM 35.0424 -89.9767 180° South  Level Estimated
11:57AM 35.0424 -89.9767 180° South  Level Estimated
11:58AM 35.0424 -89.9767 180° South  Level Estimated
11:59AM 35.0424 -89.9767 180° South  Level Estimated
12:00PM 35.0424 -89.9767 180° South  Level Estimated
12:01PM 35.0424 -89.9767 180° South  Level Estimated
12:02PM 35.0424 -89.9767 180° South  Level Estimated
12:03PM 35.0424 -89.9767 180° South  Level Estimated
12:04PM 35.0424 -89.9767 180° South  Level Estimated
12:05PM 35.0424 -89.9767 180° South  Level Estimated